createdAt,value
2018-03-22T00:02:05.911Z,30.50
2018-03-22T00:04:33.486Z,31.07
2018-03-22T00:07:01.244Z,29.27
2018-03-22T00:09:28.884Z,24.20
2018-03-22T00:11:56.546Z,37.10
2018-03-22T00:14:24.137Z,30.90
2018-03-22T00:16:51.986Z,36.20
2018-03-22T00:19:19.672Z,26.40
2018-03-22T00:21:47.255Z,31.37
2018-03-22T00:24:14.910Z,30.77
2018-03-22T00:26:42.487Z,42.33
2018-03-22T00:29:10.105Z,36.67
2018-03-22T00:31:37.733Z,29.17
2018-03-22T00:34:05.303Z,35.80
2018-03-22T00:36:33.003Z,31.80
2018-03-22T00:39:00.560Z,30.10
2018-03-22T00:41:28.650Z,34.47
2018-03-22T00:43:56.267Z,48.47
2018-03-22T00:46:23.858Z,30.60
2018-03-22T00:48:51.483Z,32.93
2018-03-22T00:51:19.128Z,34.63
2018-03-22T00:53:46.794Z,32.73
2018-03-22T00:56:14.364Z,41.93
2018-03-22T00:58:42.030Z,36.47
2018-03-22T01:01:09.609Z,35.93
2018-03-22T01:03:37.185Z,37.60
2018-03-22T01:06:04.820Z,32.87
2018-03-22T01:08:32.478Z,50.17
2018-03-22T01:11:00.115Z,38.10
2018-03-22T01:13:27.693Z,35.03
2018-03-22T01:15:55.557Z,30.90
2018-03-22T01:18:23.192Z,31.97
2018-03-22T01:20:50.793Z,40.53
2018-03-22T01:23:18.388Z,29.93
2018-03-22T01:25:46.253Z,37.30
2018-03-22T01:28:13.855Z,34.37
2018-03-22T01:30:42.401Z,37.10
2018-03-22T01:33:10.090Z,40.83
2018-03-22T01:35:37.705Z,44.57
2018-03-22T01:38:05.263Z,37.67
2018-03-22T01:40:32.905Z,47.43
2018-03-22T01:43:00.561Z,35.53
2018-03-22T01:45:28.266Z,37.93
2018-03-22T01:47:55.885Z,49.27
2018-03-22T01:50:23.435Z,47.60
2018-03-22T01:53:02.922Z,43.83
2018-03-22T01:55:30.487Z,43.50
2018-03-22T01:57:58.129Z,41.03
2018-03-22T02:00:25.709Z,45.73
2018-03-22T02:02:57.896Z,59.43
2018-03-22T02:05:25.535Z,46.13
2018-03-22T02:07:53.187Z,44.50
2018-03-22T02:10:20.760Z,51.47
2018-03-22T02:12:48.800Z,53.43
2018-03-22T02:15:16.510Z,41.53
2018-03-22T02:17:44.276Z,47.53
2018-03-22T02:20:12.112Z,56.90
2018-03-22T02:22:39.716Z,50.30
2018-03-22T02:25:07.368Z,48.90
2018-03-22T02:27:35.013Z,63.90
2018-03-22T02:30:02.568Z,45.97
2018-03-22T02:32:30.122Z,55.67
2018-03-22T02:34:57.730Z,53.30
2018-03-22T02:37:25.371Z,58.53
2018-03-22T02:39:53.016Z,58.40
2018-03-22T02:42:20.612Z,59.23
2018-03-22T02:44:48.488Z,62.57
2018-03-22T02:47:16.148Z,59.13
2018-03-22T02:49:43.839Z,64.63
2018-03-22T02:52:11.458Z,65.27
2018-03-22T02:54:39.114Z,61.63
2018-03-22T02:57:06.751Z,67.53
2018-03-22T02:59:34.704Z,70.87
2018-03-22T03:02:02.281Z,70.30
2018-03-22T03:04:30.221Z,69.50
2018-03-22T03:06:57.776Z,74.00
2018-03-22T03:09:25.615Z,74.27
2018-03-22T03:11:53.265Z,91.00
2018-03-22T03:14:21.214Z,69.43
2018-03-22T03:16:48.894Z,70.00
2018-03-22T03:19:16.566Z,67.83
2018-03-22T03:21:44.195Z,63.63
2018-03-22T03:24:11.810Z,71.77
2018-03-22T03:26:39.411Z,68.67
2018-03-22T03:29:06.987Z,74.27
2018-03-22T03:31:34.647Z,62.30
2018-03-22T03:34:02.231Z,63.03
2018-03-22T03:36:29.873Z,63.00
2018-03-22T03:38:57.458Z,61.03
2018-03-22T03:41:25.098Z,56.37
2018-03-22T03:43:52.698Z,63.03
2018-03-22T03:46:20.355Z,64.13
2018-03-22T03:48:48.000Z,47.97
2018-03-22T03:51:16.016Z,62.57
2018-03-22T03:53:43.984Z,54.33
2018-03-22T03:56:11.610Z,58.60
2018-03-22T03:58:39.235Z,57.30
2018-03-22T04:01:07.047Z,55.77
2018-03-22T04:03:34.785Z,51.30
2018-03-22T04:06:02.359Z,48.20
2018-03-22T04:08:29.993Z,50.43
2018-03-22T04:10:57.597Z,50.67
2018-03-22T04:13:25.211Z,51.07
2018-03-22T04:15:53.164Z,48.03
2018-03-22T04:18:20.806Z,43.70
2018-03-22T04:20:48.376Z,42.20
2018-03-22T04:23:16.181Z,40.67
2018-03-22T04:25:44.217Z,39.50
2018-03-22T04:28:11.886Z,38.83
2018-03-22T04:30:39.479Z,42.53
2018-03-22T04:33:07.107Z,46.87
2018-03-22T04:35:34.712Z,46.57
2018-03-22T04:38:02.293Z,44.13
2018-03-22T04:40:29.939Z,41.83
2018-03-22T04:42:57.488Z,44.10
2018-03-22T04:45:25.517Z,51.80
2018-03-22T04:47:53.128Z,41.43
2018-03-22T04:50:20.744Z,39.73
2018-03-22T04:52:48.439Z,41.47
2018-03-22T04:55:16.011Z,41.70
2018-03-22T04:57:43.596Z,42.70
2018-03-22T05:00:11.213Z,39.50
2018-03-22T05:02:38.802Z,42.03
2018-03-22T05:05:06.436Z,36.23
2018-03-22T05:07:34.062Z,40.07
2018-03-22T05:10:01.925Z,48.47
2018-03-22T05:12:29.531Z,44.23
2018-03-22T05:14:57.145Z,36.63
2018-03-22T05:17:24.763Z,45.33
2018-03-22T05:19:52.560Z,43.20
2018-03-22T05:22:20.445Z,42.37
2018-03-22T05:24:48.068Z,39.67
2018-03-22T05:27:15.690Z,40.30
2018-03-22T05:29:43.345Z,42.17
2018-03-22T05:32:10.967Z,42.33
2018-03-22T05:34:38.753Z,38.73
2018-03-22T05:37:06.437Z,35.27
2018-03-22T05:39:34.093Z,38.83
2018-03-22T05:42:02.057Z,35.50
2018-03-22T05:44:29.660Z,39.90
2018-03-22T05:46:57.238Z,38.50
2018-03-22T05:49:24.847Z,37.27
2018-03-22T05:51:52.788Z,40.03
2018-03-22T05:54:20.339Z,40.80
2018-03-22T05:56:47.982Z,37.33
2018-03-22T05:59:15.574Z,36.13
2018-03-22T06:01:43.209Z,33.40
2018-03-22T06:04:10.811Z,33.13
2018-03-22T06:06:38.411Z,34.07
2018-03-22T06:09:06.041Z,33.17
2018-03-22T06:11:33.672Z,29.00
2018-03-22T06:14:01.556Z,26.17
2018-03-22T06:16:29.193Z,27.97
2018-03-22T06:18:56.769Z,24.67
2018-03-22T06:21:24.391Z,24.77
2018-03-22T06:23:52.097Z,22.40
2018-03-22T06:26:19.655Z,21.67
2018-03-22T06:28:47.253Z,22.23
2018-03-22T06:31:15.097Z,20.80
2018-03-22T06:33:42.686Z,19.93
2018-03-22T06:36:10.297Z,20.87
2018-03-22T06:38:37.858Z,17.10
2018-03-22T06:41:05.468Z,17.33
2018-03-22T06:43:33.084Z,17.60
2018-03-22T06:46:00.677Z,16.53
2018-03-22T06:48:28.328Z,18.97
2018-03-22T06:50:56.202Z,16.77
2018-03-22T06:53:23.811Z,19.80
2018-03-22T06:55:51.449Z,18.77
2018-03-22T06:58:19.022Z,19.10
2018-03-22T07:00:46.648Z,20.63
2018-03-22T07:03:14.597Z,27.10
2018-03-22T07:05:42.249Z,21.33
2018-03-22T07:08:09.798Z,18.93
2018-03-22T07:10:37.498Z,24.00
2018-03-22T07:13:05.184Z,17.93
2018-03-22T07:15:32.876Z,17.90
2018-03-22T07:18:00.550Z,17.13
2018-03-22T07:20:28.442Z,16.60
2018-03-22T07:22:56.070Z,17.93
2018-03-22T07:25:23.659Z,15.43
2018-03-22T07:27:51.472Z,16.07
2018-03-22T07:30:19.095Z,17.77
2018-03-22T07:32:46.726Z,17.60
2018-03-22T07:35:14.359Z,18.30
2018-03-22T07:37:42.272Z,15.90
2018-03-22T07:40:10.154Z,21.10
2018-03-22T07:42:37.710Z,22.20
2018-03-22T07:45:10.402Z,18.37
2018-03-22T07:47:38.037Z,22.87
2018-03-22T07:50:05.697Z,15.97
2018-03-22T07:52:33.385Z,23.13
2018-03-22T07:55:01.020Z,17.63
2018-03-22T07:57:28.859Z,17.60
2018-03-22T07:59:56.481Z,15.83
2018-03-22T08:02:24.091Z,13.80
2018-03-22T08:04:51.704Z,17.70
2018-03-22T08:07:19.377Z,18.30
2018-03-22T08:09:46.980Z,22.67
2018-03-22T08:12:14.626Z,16.40
2018-03-22T08:14:42.277Z,19.83
2018-03-22T08:17:09.866Z,21.30
2018-03-22T08:19:37.516Z,23.93
2018-03-22T08:22:05.131Z,27.30
2018-03-22T08:24:32.744Z,23.00
2018-03-22T08:27:00.766Z,26.80
2018-03-22T08:29:28.627Z,23.83
2018-03-22T08:31:56.275Z,31.73
2018-03-22T08:34:23.857Z,29.53
2018-03-22T08:36:51.486Z,28.20
2018-03-22T08:39:19.230Z,31.50
2018-03-22T08:41:46.796Z,30.33
2018-03-22T08:44:14.378Z,28.73
2018-03-22T08:46:42.097Z,28.20
2018-03-22T08:49:09.980Z,26.43
2018-03-22T08:51:37.574Z,37.03
2018-03-22T08:54:05.240Z,28.93
2018-03-22T08:56:32.904Z,39.13
2018-03-22T08:59:00.742Z,40.77
2018-03-22T09:01:28.351Z,30.13
2018-03-22T09:03:56.116Z,23.00
2018-03-22T09:06:23.691Z,30.03
2018-03-22T09:08:51.364Z,34.60
2018-03-22T09:11:19.018Z,34.77
2018-03-22T09:13:47.458Z,26.17
2018-03-22T09:16:15.133Z,29.83
2018-03-22T09:18:42.855Z,37.20
2018-03-22T09:21:10.431Z,29.03
2018-03-22T09:23:38.023Z,37.13
2018-03-22T09:26:05.681Z,24.17
2018-03-22T09:28:33.409Z,27.10
2018-03-22T09:31:01.002Z,30.93
2018-03-22T09:33:28.560Z,35.27
2018-03-22T09:35:56.256Z,30.57
2018-03-22T09:38:23.817Z,23.10
2018-03-22T09:40:51.654Z,28.20
2018-03-22T09:43:19.282Z,31.43
2018-03-22T09:45:46.846Z,36.63
2018-03-22T09:48:14.525Z,28.60
2018-03-22T09:50:42.179Z,34.33
2018-03-22T09:53:09.821Z,25.57
2018-03-22T09:55:37.400Z,28.83
2018-03-22T09:58:05.407Z,24.33
2018-03-22T10:00:33.021Z,27.00
2018-03-22T10:03:00.587Z,15.27
2018-03-22T10:05:28.186Z,15.30
2018-03-22T10:07:55.736Z,23.40
2018-03-22T10:10:23.446Z,20.53
2018-03-22T10:12:51.265Z,19.93
2018-03-22T10:15:18.844Z,13.73
2018-03-22T10:17:46.452Z,22.30
2018-03-22T10:20:14.102Z,22.93
2018-03-22T10:22:41.759Z,27.10
2018-03-22T10:25:09.448Z,18.00
2018-03-22T10:27:37.336Z,21.70
2018-03-22T10:30:04.906Z,26.43
2018-03-22T10:32:33.020Z,21.33
2018-03-22T10:35:00.656Z,36.50
2018-03-22T10:37:28.334Z,23.43
2018-03-22T10:39:56.363Z,25.70
2018-03-22T10:42:24.026Z,22.57
2018-03-22T10:44:51.680Z,24.20
2018-03-22T10:47:19.656Z,12.73
2018-03-22T10:49:47.310Z,25.40
2018-03-22T10:52:14.966Z,21.40
2018-03-22T10:54:42.677Z,15.83
2018-03-22T10:57:10.346Z,15.23
2018-03-22T10:59:38.047Z,19.20
2018-03-22T11:02:05.870Z,19.13
2018-03-22T11:04:33.518Z,22.77
2018-03-22T11:07:01.342Z,17.47
2018-03-22T11:09:28.935Z,17.17
2018-03-22T11:11:56.620Z,15.33
2018-03-22T11:14:24.171Z,3.50
2018-03-22T11:16:51.820Z,7.03
2018-03-22T11:19:19.419Z,10.70
2018-03-22T11:21:47.123Z,7.67
2018-03-22T11:24:14.895Z,10.90
2018-03-22T11:26:42.573Z,9.20
2018-03-22T11:29:10.146Z,9.10
2018-03-22T11:31:37.777Z,8.17
2018-03-22T11:34:05.379Z,8.00
2018-03-22T11:36:32.979Z,7.93
2018-03-22T11:39:00.874Z,3.03
2018-03-22T11:41:28.506Z,4.20
2018-03-22T11:43:56.089Z,9.97
2018-03-22T11:46:23.675Z,7.70
2018-03-22T11:48:51.424Z,2.50
2018-03-22T11:51:18.977Z,1.10
2018-03-22T11:53:46.635Z,3.90
2018-03-22T11:56:14.226Z,2.90
2018-03-22T11:58:42.065Z,6.50
2018-03-22T12:01:09.723Z,0.70
2018-03-22T12:03:37.386Z,0.60
2018-03-22T12:06:04.972Z,1.10
2018-03-22T12:08:32.579Z,0.90
2018-03-22T12:11:00.638Z,4.27
2018-03-22T12:13:29.174Z,1.87
2018-03-22T12:15:57.109Z,1.53
2018-03-22T12:18:24.763Z,0.80
2018-03-22T12:20:52.624Z,0.60
2018-03-22T12:23:20.225Z,0.70
2018-03-22T12:25:48.000Z,1.07
2018-03-22T12:28:15.615Z,1.00
2018-03-22T12:30:43.222Z,0.83
2018-03-22T12:33:10.869Z,1.57
2018-03-22T12:35:38.433Z,1.17
2018-03-22T12:38:06.038Z,0.70
2018-03-22T12:40:33.639Z,0.60
2018-03-22T12:43:01.240Z,1.00
2018-03-22T12:45:28.818Z,1.73
2018-03-22T12:47:56.371Z,0.80
2018-03-22T12:50:23.973Z,0.80
2018-03-22T12:52:51.646Z,0.70
2018-03-22T12:55:19.255Z,0.90
2018-03-22T12:57:46.917Z,0.70
2018-03-22T13:00:14.482Z,0.60
2018-03-22T13:02:42.163Z,1.20
2018-03-22T13:05:09.834Z,0.80
2018-03-22T13:07:37.736Z,0.60
2018-03-22T13:10:05.349Z,1.10
2018-03-22T13:12:33.092Z,1.97
2018-03-22T13:15:00.718Z,1.20
2018-03-22T13:17:28.279Z,1.00
2018-03-22T13:19:56.154Z,0.83
2018-03-22T13:22:24.505Z,0.73
2018-03-22T13:24:52.320Z,0.80
2018-03-22T13:27:20.137Z,0.70
2018-03-22T13:29:47.750Z,1.93
2018-03-22T13:32:15.292Z,0.70
2018-03-22T13:34:42.914Z,0.80
2018-03-22T13:37:10.592Z,1.17
2018-03-22T13:39:38.196Z,1.53
2018-03-22T13:42:05.797Z,1.47
2018-03-22T13:44:33.401Z,0.70
2018-03-22T13:47:01.025Z,1.33
2018-03-22T13:49:28.621Z,1.47
2018-03-22T13:51:56.193Z,0.73
2018-03-22T13:54:23.819Z,2.80
2018-03-22T13:56:51.505Z,1.80
2018-03-22T13:59:19.185Z,1.13
2018-03-22T14:01:46.809Z,0.80
2018-03-22T14:04:14.488Z,3.10
2018-03-22T14:06:42.069Z,1.40
2018-03-22T14:09:09.729Z,1.07
2018-03-22T14:11:37.317Z,1.00
2018-03-22T14:14:04.932Z,1.60
2018-03-22T14:16:32.642Z,1.00
2018-03-22T14:19:00.293Z,0.90
2018-03-22T14:21:27.880Z,1.57
2018-03-22T14:23:55.585Z,1.30
2018-03-22T14:26:23.157Z,1.80
2018-03-22T14:28:50.751Z,2.40
2018-03-22T14:31:18.429Z,1.53
2018-03-22T14:33:46.067Z,2.20
2018-03-22T14:36:13.649Z,1.27
2018-03-22T14:38:41.304Z,2.10
2018-03-22T14:41:08.883Z,4.23
2018-03-22T14:43:36.441Z,1.20
2018-03-22T14:46:04.098Z,1.80
2018-03-22T14:48:31.697Z,0.80
2018-03-22T14:50:59.274Z,1.03
2018-03-22T14:53:26.875Z,0.70
2018-03-22T14:55:54.774Z,1.53
2018-03-22T14:58:22.394Z,1.80
2018-03-22T15:00:49.952Z,0.87
2018-03-22T15:03:17.641Z,0.90
2018-03-22T15:05:45.473Z,1.20
2018-03-22T15:08:13.065Z,2.67
2018-03-22T15:10:40.747Z,5.03
2018-03-22T15:13:08.302Z,0.97
2018-03-22T15:15:35.952Z,1.10
2018-03-22T15:18:03.624Z,1.40
2018-03-22T15:20:31.187Z,1.30
2018-03-22T15:22:58.766Z,1.83
2018-03-22T15:25:26.374Z,1.70
2018-03-22T15:27:54.027Z,1.00
2018-03-22T15:30:21.624Z,2.67
2018-03-22T15:32:49.211Z,1.00
2018-03-22T15:35:16.831Z,3.00
2018-03-22T15:37:44.591Z,1.63
2018-03-22T15:40:12.169Z,1.33
2018-03-22T15:42:40.163Z,1.93
2018-03-22T15:45:08.104Z,1.60
2018-03-22T15:47:35.681Z,0.80
2018-03-22T15:50:03.542Z,1.20
2018-03-22T15:52:31.155Z,2.90
2018-03-22T15:54:58.795Z,1.20
2018-03-22T15:57:26.549Z,1.50
2018-03-22T15:59:54.174Z,0.80
2018-03-22T16:02:21.814Z,1.97
2018-03-22T16:04:49.530Z,3.60
2018-03-22T16:07:17.157Z,2.20
2018-03-22T16:09:44.771Z,2.47
2018-03-22T16:12:12.485Z,1.30
2018-03-22T16:14:40.082Z,2.50
2018-03-22T16:17:07.687Z,1.23
2018-03-22T16:19:35.321Z,6.60
2018-03-22T16:22:03.013Z,6.83
2018-03-22T16:24:30.935Z,9.87
2018-03-22T16:26:58.684Z,2.90
2018-03-22T16:29:26.355Z,5.43
2018-03-22T16:31:54.177Z,3.93
2018-03-22T16:34:21.795Z,2.70
2018-03-22T16:36:49.464Z,7.27
2018-03-22T16:39:17.125Z,11.63
2018-03-22T16:41:44.842Z,3.10
2018-03-22T16:44:12.471Z,3.07
2018-03-22T16:46:40.086Z,2.50
2018-03-22T16:49:07.757Z,6.47
2018-03-22T16:51:35.578Z,2.73
2018-03-22T16:54:03.185Z,7.03
2018-03-22T16:56:30.817Z,2.77
2018-03-22T16:58:58.421Z,2.87
2018-03-22T17:01:26.045Z,2.60
2018-03-22T17:03:53.672Z,3.30
2018-03-22T17:06:21.359Z,12.33
2018-03-22T17:08:48.940Z,3.93
2018-03-22T17:11:16.572Z,2.53
2018-03-22T17:13:44.584Z,5.57
2018-03-22T17:16:12.224Z,9.87
2018-03-22T17:18:39.861Z,2.93
2018-03-22T17:21:07.442Z,3.23
2018-03-22T17:23:35.325Z,2.20
2018-03-22T17:26:02.988Z,2.30
2018-03-22T17:28:30.644Z,3.10
2018-03-22T17:30:58.241Z,4.87
2018-03-22T17:33:25.909Z,4.60
2018-03-22T17:35:53.468Z,3.57
2018-03-22T17:38:21.065Z,4.53
2018-03-22T17:40:48.808Z,4.20
2018-03-22T17:43:16.387Z,4.10
2018-03-22T17:45:44.065Z,1.93
2018-03-22T17:48:11.792Z,5.10
2018-03-22T17:50:39.351Z,3.00
2018-03-22T17:53:06.910Z,7.80
2018-03-22T17:55:34.545Z,5.10
2018-03-22T17:58:02.213Z,3.93
2018-03-22T18:00:29.811Z,4.30
2018-03-22T18:02:57.540Z,5.43
2018-03-22T18:05:25.133Z,6.70
2018-03-22T18:07:52.757Z,4.33
2018-03-22T18:10:20.426Z,6.27
2018-03-22T18:12:48.284Z,8.10
2018-03-22T18:15:17.077Z,4.20
2018-03-22T18:17:45.129Z,6.13
2018-03-22T18:20:13.219Z,4.47
2018-03-22T18:22:40.889Z,5.43
2018-03-22T18:25:09.217Z,6.80
2018-03-22T18:27:36.819Z,6.43
2018-03-22T18:30:04.525Z,8.70
2018-03-22T18:32:32.190Z,3.13
2018-03-22T18:34:59.842Z,4.40
2018-03-22T18:37:27.622Z,2.60
2018-03-22T18:39:55.544Z,4.83
2018-03-22T18:42:23.179Z,7.73
2018-03-22T18:44:50.827Z,2.33
2018-03-22T18:47:18.429Z,3.83
2018-03-22T18:49:46.246Z,3.47
2018-03-22T18:52:14.162Z,2.73
2018-03-22T18:54:41.988Z,2.60
2018-03-22T18:57:09.649Z,5.10
2018-03-22T18:59:37.531Z,2.87
2018-03-22T19:02:05.128Z,5.87
2018-03-22T19:04:32.788Z,6.60
2018-03-22T19:07:00.691Z,2.40
2018-03-22T19:09:28.292Z,3.60
2018-03-22T19:11:55.882Z,4.90
2018-03-22T19:14:23.518Z,5.33
2018-03-22T19:16:51.118Z,7.17
2018-03-22T19:19:18.882Z,6.30
2018-03-22T19:21:46.601Z,6.20
2018-03-22T19:24:14.245Z,7.10
2018-03-22T19:26:41.987Z,5.43
2018-03-22T19:29:09.648Z,9.70
2018-03-22T19:31:37.253Z,6.13
2018-03-22T19:34:04.858Z,7.23
2018-03-22T19:36:32.778Z,10.03
2018-03-22T19:39:00.468Z,8.00
2018-03-22T19:41:28.329Z,6.87
2018-03-22T19:43:55.894Z,6.10
2018-03-22T19:46:23.622Z,10.20
2018-03-22T19:48:51.524Z,7.63
2018-03-22T19:51:19.120Z,9.30
2018-03-22T19:53:46.787Z,9.43
2018-03-22T19:56:14.373Z,7.27
2018-03-22T19:58:42.049Z,9.20
2018-03-22T20:01:10.511Z,9.60
2018-03-22T20:03:38.413Z,8.80
2018-03-22T20:06:06.464Z,7.40
2018-03-22T20:08:34.136Z,7.23
2018-03-22T20:11:01.778Z,9.60
2018-03-22T20:13:29.486Z,6.50
2018-03-22T20:15:57.070Z,6.63
2018-03-22T20:18:24.725Z,8.57
2018-03-22T20:20:52.399Z,11.00
2018-03-22T20:23:20.003Z,8.33
2018-03-22T20:25:47.695Z,6.73
2018-03-22T20:28:15.501Z,4.33
2018-03-22T20:30:43.139Z,6.73
2018-03-22T20:33:10.727Z,5.73
2018-03-22T20:35:38.493Z,9.90
2018-03-22T20:38:06.122Z,8.27
2018-03-22T20:40:33.802Z,8.30
2018-03-22T20:43:02.260Z,10.83
2018-03-22T20:45:29.847Z,8.13
2018-03-22T20:47:57.447Z,7.50
2018-03-22T20:50:25.416Z,17.43
2018-03-22T20:52:53.260Z,12.10
2018-03-22T20:55:20.851Z,8.20
2018-03-22T20:57:48.469Z,12.00
2018-03-22T21:00:16.221Z,11.70
2018-03-22T21:02:43.914Z,11.80
2018-03-22T21:05:11.509Z,11.77
2018-03-22T21:07:39.153Z,9.17
2018-03-22T21:10:06.741Z,12.53
2018-03-22T21:12:34.327Z,11.53
2018-03-22T21:15:01.970Z,16.73
2018-03-22T21:17:29.549Z,18.10
2018-03-22T21:19:57.184Z,11.20
2018-03-22T21:22:24.864Z,13.27
2018-03-22T21:24:52.465Z,23.20
2018-03-22T21:27:20.100Z,20.60
2018-03-22T21:29:47.881Z,23.40
2018-03-22T21:32:15.466Z,17.10
2018-03-22T21:34:43.071Z,30.50
2018-03-22T21:37:10.721Z,31.90
2018-03-22T21:39:38.357Z,27.53
2018-03-22T21:42:06.939Z,31.17
2018-03-22T21:44:34.553Z,20.70
2018-03-22T21:47:14.342Z,25.50
2018-03-22T21:49:41.947Z,24.53
2018-03-22T21:52:21.392Z,19.60
2018-03-22T21:54:49.432Z,18.87
2018-03-22T21:57:17.101Z,25.23
2018-03-22T21:59:44.971Z,18.73
2018-03-22T22:02:13.012Z,16.73
2018-03-22T22:04:40.732Z,14.43
2018-03-22T22:07:08.785Z,18.03
2018-03-22T22:09:37.032Z,12.80
2018-03-22T22:12:04.749Z,19.50
2018-03-22T22:14:32.580Z,18.93
2018-03-22T22:17:00.557Z,20.03
2018-03-22T22:19:28.228Z,21.97
2018-03-22T22:21:55.825Z,18.77
2018-03-22T22:24:23.467Z,17.90
2018-03-22T22:26:51.128Z,21.50
2018-03-22T22:29:18.841Z,21.87
2018-03-22T22:31:46.483Z,14.00
2018-03-22T22:34:14.094Z,23.33
2018-03-22T22:36:41.948Z,17.97
2018-03-22T22:39:09.675Z,21.13
2018-03-22T22:41:37.395Z,18.40
2018-03-22T22:44:05.186Z,15.10
2018-03-22T22:46:32.800Z,18.60
2018-03-22T22:49:00.380Z,18.13
2018-03-22T22:51:28.484Z,14.07
2018-03-22T22:53:56.189Z,14.97
2018-03-22T22:56:23.935Z,14.07
2018-03-22T22:58:51.584Z,18.77
2018-03-22T23:01:19.247Z,15.33
2018-03-22T23:03:46.895Z,18.37
2018-03-22T23:06:14.625Z,19.13
2018-03-22T23:08:42.442Z,17.00
2018-03-22T23:11:10.030Z,19.47
2018-03-22T23:13:38.079Z,16.20
2018-03-22T23:16:05.658Z,16.30
2018-03-22T23:18:33.872Z,12.13
2018-03-22T23:21:02.204Z,13.80
2018-03-22T23:23:30.238Z,16.87
2018-03-22T23:25:58.189Z,16.13
2018-03-22T23:28:26.123Z,16.00
2018-03-22T23:30:54.371Z,17.63
2018-03-22T23:33:21.992Z,23.53
2018-03-22T23:35:49.721Z,19.37
2018-03-22T23:38:17.402Z,27.10
2018-03-22T23:40:45.049Z,12.57
2018-03-22T23:43:12.681Z,16.70
2018-03-22T23:45:40.509Z,15.27
2018-03-22T23:48:08.467Z,17.40
2018-03-22T23:50:36.700Z,12.33
2018-03-22T23:53:04.298Z,24.27
2018-03-22T23:55:31.910Z,21.53
2018-03-22T23:57:59.935Z,14.20
